sensor_id;sensor_type;location;lat;lon;timestamp;P1;durP1;ratioP1;P2;durP2;ratioP2
63217;SDS011;49314;48.278;16.378;2022-07-21T00:02:19;2.80;;;2.17;;
63217;SDS011;49314;48.278;16.378;2022-07-21T00:04:44;4.20;;;2.40;;
63217;SDS011;49314;48.278;16.378;2022-07-21T00:07:10;6.80;;;3.23;;
63217;SDS011;49314;48.278;16.378;2022-07-21T00:09:35;3.20;;;2.80;;
63217;SDS011;49314;48.278;16.378;2022-07-21T00:12:01;2.93;;;2.50;;
63217;SDS011;49314;48.278;16.378;2022-07-21T00:14:26;4.38;;;2.72;;
63217;SDS011;49314;48.278;16.378;2022-07-21T00:16:51;3.67;;;2.53;;
63217;SDS011;49314;48.278;16.378;2022-07-21T00:19:16;4.83;;;3.10;;
63217;SDS011;49314;48.278;16.378;2022-07-21T00:21:42;5.50;;;2.85;;
63217;SDS011;49314;48.278;16.378;2022-07-21T00:24:07;4.40;;;2.47;;
63217;SDS011;49314;48.278;16.378;2022-07-21T00:26:32;4.07;;;2.87;;
63217;SDS011;49314;48.278;16.378;2022-07-21T00:28:58;6.17;;;2.70;;
63217;SDS011;49314;48.278;16.378;2022-07-21T00:31:23;4.40;;;2.97;;
63217;SDS011;49314;48.278;16.378;2022-07-21T00:33:48;5.57;;;2.90;;
63217;SDS011;49314;48.278;16.378;2022-07-21T00:36:16;3.20;;;2.67;;
63217;SDS011;49314;48.278;16.378;2022-07-21T00:38:41;5.32;;;2.83;;
63217;SDS011;49314;48.278;16.378;2022-07-21T00:41:06;4.03;;;2.90;;
63217;SDS011;49314;48.278;16.378;2022-07-21T00:43:31;3.07;;;2.70;;
63217;SDS011;49314;48.278;16.378;2022-07-21T00:45:57;3.37;;;2.53;;
63217;SDS011;49314;48.278;16.378;2022-07-21T00:48:22;2.93;;;2.20;;
63217;SDS011;49314;48.278;16.378;2022-07-21T00:50:47;4.60;;;2.37;;
63217;SDS011;49314;48.278;16.378;2022-07-21T00:53:13;3.00;;;2.45;;
63217;SDS011;49314;48.278;16.378;2022-07-21T00:55:38;4.80;;;3.10;;
63217;SDS011;49314;48.278;16.378;2022-07-21T00:58:06;4.00;;;2.67;;
63217;SDS011;49314;48.278;16.378;2022-07-21T01:00:31;3.30;;;2.70;;
63217;SDS011;49314;48.278;16.378;2022-07-21T01:02:57;3.67;;;2.45;;
63217;SDS011;49314;48.278;16.378;2022-07-21T01:05:22;3.28;;;2.40;;
63217;SDS011;49314;48.278;16.378;2022-07-21T01:07:50;6.70;;;2.45;;
63217;SDS011;49314;48.278;16.378;2022-07-21T01:10:16;3.38;;;2.33;;
63217;SDS011;49314;48.278;16.378;2022-07-21T01:12:41;4.03;;;2.50;;
63217;SDS011;49314;48.278;16.378;2022-07-21T01:15:07;2.95;;;2.60;;
63217;SDS011;49314;48.278;16.378;2022-07-21T01:17:33;4.00;;;2.58;;
63217;SDS011;49314;48.278;16.378;2022-07-21T01:20:01;5.78;;;2.97;;
63217;SDS011;49314;48.278;16.378;2022-07-21T01:22:27;3.45;;;2.80;;
63217;SDS011;49314;48.278;16.378;2022-07-21T01:24:52;4.10;;;3.00;;
63217;SDS011;49314;48.278;16.378;2022-07-21T01:27:18;3.07;;;2.80;;
63217;SDS011;49314;48.278;16.378;2022-07-21T01:29:43;3.10;;;2.80;;
63217;SDS011;49314;48.278;16.378;2022-07-21T01:32:08;3.73;;;2.80;;
63217;SDS011;49314;48.278;16.378;2022-07-21T01:34:33;5.07;;;2.60;;
63217;SDS011;49314;48.278;16.378;2022-07-21T01:36:58;5.17;;;2.63;;
63217;SDS011;49314;48.278;16.378;2022-07-21T01:39:24;2.83;;;2.33;;
63217;SDS011;49314;48.278;16.378;2022-07-21T01:42:08;4.85;;;2.80;;
63217;SDS011;49314;48.278;16.378;2022-07-21T01:44:33;3.00;;;2.47;;
63217;SDS011;49314;48.278;16.378;2022-07-21T01:46:58;2.93;;;2.63;;
63217;SDS011;49314;48.278;16.378;2022-07-21T01:49:23;3.23;;;2.80;;
63217;SDS011;49314;48.278;16.378;2022-07-21T01:51:49;3.93;;;2.73;;
63217;SDS011;49314;48.278;16.378;2022-07-21T01:54:14;5.18;;;2.42;;
63217;SDS011;49314;48.278;16.378;2022-07-21T01:56:40;3.40;;;2.42;;
63217;SDS011;49314;48.278;16.378;2022-07-21T01:59:05;4.47;;;2.90;;
63217;SDS011;49314;48.278;16.378;2022-07-21T02:01:31;3.75;;;2.67;;
63217;SDS011;49314;48.278;16.378;2022-07-21T02:03:58;4.10;;;2.53;;
63217;SDS011;49314;48.278;16.378;2022-07-21T02:06:24;4.05;;;2.67;;
63217;SDS011;49314;48.278;16.378;2022-07-21T02:08:49;4.70;;;2.53;;
63217;SDS011;49314;48.278;16.378;2022-07-21T02:11:15;4.05;;;2.58;;
63217;SDS011;49314;48.278;16.378;2022-07-21T02:13:41;3.80;;;3.05;;
63217;SDS011;49314;48.278;16.378;2022-07-21T02:16:06;4.63;;;2.53;;
63217;SDS011;49314;48.278;16.378;2022-07-21T02:18:32;3.15;;;2.53;;
63217;SDS011;49314;48.278;16.378;2022-07-21T02:20:57;3.07;;;2.57;;
63217;SDS011;49314;48.278;16.378;2022-07-21T02:23:23;2.70;;;2.50;;
63217;SDS011;49314;48.278;16.378;2022-07-21T02:25:49;3.97;;;2.83;;
63217;SDS011;49314;48.278;16.378;2022-07-21T02:28:14;4.03;;;2.65;;
63217;SDS011;49314;48.278;16.378;2022-07-21T02:30:39;3.00;;;2.80;;
63217;SDS011;49314;48.278;16.378;2022-07-21T02:33:05;3.63;;;2.60;;
63217;SDS011;49314;48.278;16.378;2022-07-21T02:35:31;2.70;;;2.50;;
63217;SDS011;49314;48.278;16.378;2022-07-21T02:37:56;3.10;;;2.70;;
63217;SDS011;49314;48.278;16.378;2022-07-21T02:40:21;3.57;;;2.43;;
63217;SDS011;49314;48.278;16.378;2022-07-21T02:42:46;3.78;;;2.30;;
63217;SDS011;49314;48.278;16.378;2022-07-21T02:45:12;2.73;;;2.53;;
63217;SDS011;49314;48.278;16.378;2022-07-21T02:47:53;4.80;;;3.10;;
63217;SDS011;49314;48.278;16.378;2022-07-21T02:50:18;3.95;;;2.65;;
63217;SDS011;49314;48.278;16.378;2022-07-21T02:52:44;3.10;;;2.75;;
63217;SDS011;49314;48.278;16.378;2022-07-21T02:55:09;3.70;;;3.40;;
63217;SDS011;49314;48.278;16.378;2022-07-21T02:57:34;2.73;;;2.43;;
63217;SDS011;49314;48.278;16.378;2022-07-21T03:00:00;4.77;;;2.53;;
63217;SDS011;49314;48.278;16.378;2022-07-21T03:02:25;3.22;;;2.38;;
63217;SDS011;49314;48.278;16.378;2022-07-21T03:04:50;3.07;;;2.80;;
63217;SDS011;49314;48.278;16.378;2022-07-21T03:07:15;3.17;;;2.63;;
63217;SDS011;49314;48.278;16.378;2022-07-21T03:09:41;2.65;;;2.45;;
63217;SDS011;49314;48.278;16.378;2022-07-21T03:12:06;4.00;;;2.77;;
63217;SDS011;49314;48.278;16.378;2022-07-21T03:14:32;3.20;;;2.90;;
63217;SDS011;49314;48.278;16.378;2022-07-21T03:16:57;3.00;;;2.70;;
63217;SDS011;49314;48.278;16.378;2022-07-21T03:19:23;6.63;;;2.60;;
63217;SDS011;49314;48.278;16.378;2022-07-21T03:21:48;5.60;;;2.60;;
63217;SDS011;49314;48.278;16.378;2022-07-21T03:24:14;4.35;;;2.70;;
63217;SDS011;49314;48.278;16.378;2022-07-21T03:26:39;4.90;;;2.80;;
63217;SDS011;49314;48.278;16.378;2022-07-21T03:29:04;4.67;;;3.37;;
63217;SDS011;49314;48.278;16.378;2022-07-21T03:31:29;3.47;;;2.63;;
63217;SDS011;49314;48.278;16.378;2022-07-21T03:33:55;3.38;;;2.80;;
63217;SDS011;49314;48.278;16.378;2022-07-21T03:36:20;5.25;;;3.08;;
63217;SDS011;49314;48.278;16.378;2022-07-21T03:38:47;4.68;;;2.67;;
63217;SDS011;49314;48.278;16.378;2022-07-21T03:41:12;3.47;;;2.83;;
63217;SDS011;49314;48.278;16.378;2022-07-21T03:43:37;5.60;;;3.08;;
63217;SDS011;49314;48.278;16.378;2022-07-21T03:46:03;10.87;;;3.23;;
63217;SDS011;49314;48.278;16.378;2022-07-21T03:48:28;4.40;;;2.67;;
63217;SDS011;49314;48.278;16.378;2022-07-21T03:50:53;6.50;;;2.83;;
63217;SDS011;49314;48.278;16.378;2022-07-21T03:53:18;4.73;;;2.90;;
63217;SDS011;49314;48.278;16.378;2022-07-21T03:55:45;3.38;;;3.08;;
63217;SDS011;49314;48.278;16.378;2022-07-21T03:58:11;3.92;;;2.90;;
63217;SDS011;49314;48.278;16.378;2022-07-21T04:00:43;5.65;;;3.95;;
63217;SDS011;49314;48.278;16.378;2022-07-21T04:03:08;4.20;;;3.55;;
63217;SDS011;49314;48.278;16.378;2022-07-21T04:05:34;3.40;;;3.10;;
63217;SDS011;49314;48.278;16.378;2022-07-21T04:08:00;7.38;;;3.65;;
63217;SDS011;49314;48.278;16.378;2022-07-21T04:10:26;4.82;;;3.60;;
63217;SDS011;49314;48.278;16.378;2022-07-21T04:12:52;5.20;;;2.90;;
63217;SDS011;49314;48.278;16.378;2022-07-21T04:15:18;4.75;;;2.90;;
63217;SDS011;49314;48.278;16.378;2022-07-21T04:17:43;5.47;;;2.60;;
63217;SDS011;49314;48.278;16.378;2022-07-21T04:20:09;4.85;;;2.72;;
63217;SDS011;49314;48.278;16.378;2022-07-21T04:22:34;2.97;;;2.78;;
63217;SDS011;49314;48.278;16.378;2022-07-21T04:25:00;5.85;;;3.35;;
63217;SDS011;49314;48.278;16.378;2022-07-21T04:27:26;6.15;;;3.60;;
63217;SDS011;49314;48.278;16.378;2022-07-21T04:29:51;4.07;;;2.97;;
63217;SDS011;49314;48.278;16.378;2022-07-21T04:32:16;15.40;;;3.53;;
63217;SDS011;49314;48.278;16.378;2022-07-21T04:34:41;6.70;;;2.97;;
63217;SDS011;49314;48.278;16.378;2022-07-21T04:37:06;5.13;;;3.00;;
63217;SDS011;49314;48.278;16.378;2022-07-21T04:39:32;5.40;;;2.73;;
63217;SDS011;49314;48.278;16.378;2022-07-21T04:41:57;4.82;;;2.75;;
63217;SDS011;49314;48.278;16.378;2022-07-21T04:44:22;3.90;;;3.23;;
63217;SDS011;49314;48.278;16.378;2022-07-21T04:46:48;5.40;;;3.80;;
63217;SDS011;49314;48.278;16.378;2022-07-21T04:49:13;5.00;;;3.28;;
63217;SDS011;49314;48.278;16.378;2022-07-21T04:51:38;3.63;;;3.07;;
63217;SDS011;49314;48.278;16.378;2022-07-21T04:54:04;9.35;;;3.47;;
63217;SDS011;49314;48.278;16.378;2022-07-21T04:56:30;8.15;;;3.40;;
63217;SDS011;49314;48.278;16.378;2022-07-21T04:58:55;8.55;;;3.83;;
63217;SDS011;49314;48.278;16.378;2022-07-21T05:01:21;7.73;;;3.53;;
63217;SDS011;49314;48.278;16.378;2022-07-21T05:03:46;5.37;;;3.40;;
63217;SDS011;49314;48.278;16.378;2022-07-21T05:06:11;12.02;;;3.70;;
63217;SDS011;49314;48.278;16.378;2022-07-21T05:08:36;4.55;;;2.80;;
63217;SDS011;49314;48.278;16.378;2022-07-21T05:11:02;9.13;;;3.80;;
63217;SDS011;49314;48.278;16.378;2022-07-21T05:13:27;9.43;;;3.83;;
63217;SDS011;49314;48.278;16.378;2022-07-21T05:15:52;9.50;;;3.20;;
63217;SDS011;49314;48.278;16.378;2022-07-21T05:18:17;4.33;;;3.17;;
63217;SDS011;49314;48.278;16.378;2022-07-21T05:20:43;6.53;;;3.10;;
63217;SDS011;49314;48.278;16.378;2022-07-21T05:23:08;6.97;;;3.67;;
63217;SDS011;49314;48.278;16.378;2022-07-21T05:25:33;7.45;;;3.38;;
63217;SDS011;49314;48.278;16.378;2022-07-21T05:28:00;5.25;;;2.78;;
63217;SDS011;49314;48.278;16.378;2022-07-21T05:30:25;6.60;;;3.05;;
63217;SDS011;49314;48.278;16.378;2022-07-21T05:32:51;14.95;;;4.18;;
63217;SDS011;49314;48.278;16.378;2022-07-21T05:35:16;6.20;;;3.43;;
63217;SDS011;49314;48.278;16.378;2022-07-21T05:37:41;6.37;;;3.00;;
63217;SDS011;49314;48.278;16.378;2022-07-21T05:40:07;6.25;;;3.05;;
63217;SDS011;49314;48.278;16.378;2022-07-21T05:42:33;5.05;;;3.55;;
63217;SDS011;49314;48.278;16.378;2022-07-21T05:44:58;8.00;;;3.80;;
63217;SDS011;49314;48.278;16.378;2022-07-21T05:47:24;8.63;;;3.50;;
63217;SDS011;49314;48.278;16.378;2022-07-21T05:49:49;7.38;;;3.45;;
63217;SDS011;49314;48.278;16.378;2022-07-21T05:52:14;7.63;;;3.03;;
63217;SDS011;49314;48.278;16.378;2022-07-21T05:54:39;5.32;;;3.30;;
63217;SDS011;49314;48.278;16.378;2022-07-21T05:57:04;4.57;;;2.97;;
63217;SDS011;49314;48.278;16.378;2022-07-21T05:59:30;4.50;;;2.93;;
63217;SDS011;49314;48.278;16.378;2022-07-21T06:01:55;6.73;;;3.27;;
63217;SDS011;49314;48.278;16.378;2022-07-21T06:04:20;7.30;;;3.13;;
63217;SDS011;49314;48.278;16.378;2022-07-21T06:06:45;7.40;;;3.20;;
63217;SDS011;49314;48.278;16.378;2022-07-21T06:09:11;7.50;;;3.20;;
63217;SDS011;49314;48.278;16.378;2022-07-21T06:11:36;3.63;;;3.30;;
63217;SDS011;49314;48.278;16.378;2022-07-21T06:14:01;9.67;;;3.10;;
63217;SDS011;49314;48.278;16.378;2022-07-21T06:16:26;3.35;;;2.70;;
63217;SDS011;49314;48.278;16.378;2022-07-21T06:18:52;4.90;;;3.00;;
63217;SDS011;49314;48.278;16.378;2022-07-21T06:21:17;10.53;;;3.37;;
63217;SDS011;49314;48.278;16.378;2022-07-21T06:23:43;6.15;;;2.53;;
63217;SDS011;49314;48.278;16.378;2022-07-21T06:26:08;5.93;;;2.83;;
63217;SDS011;49314;48.278;16.378;2022-07-21T06:28:33;6.23;;;2.67;;
63217;SDS011;49314;48.278;16.378;2022-07-21T06:30:58;8.37;;;3.97;;
63217;SDS011;49314;48.278;16.378;2022-07-21T06:33:24;8.63;;;3.00;;
63217;SDS011;49314;48.278;16.378;2022-07-21T06:35:49;8.10;;;3.57;;
63217;SDS011;49314;48.278;16.378;2022-07-21T06:38:14;5.93;;;3.17;;
63217;SDS011;49314;48.278;16.378;2022-07-21T06:40:40;5.07;;;3.13;;
63217;SDS011;49314;48.278;16.378;2022-07-21T06:43:05;4.07;;;3.00;;
63217;SDS011;49314;48.278;16.378;2022-07-21T06:45:30;6.93;;;3.43;;
63217;SDS011;49314;48.278;16.378;2022-07-21T06:47:59;5.03;;;3.13;;
63217;SDS011;49314;48.278;16.378;2022-07-21T06:50:24;5.93;;;3.22;;
63217;SDS011;49314;48.278;16.378;2022-07-21T06:52:50;5.90;;;3.57;;
63217;SDS011;49314;48.278;16.378;2022-07-21T06:55:15;9.60;;;3.30;;
63217;SDS011;49314;48.278;16.378;2022-07-21T06:57:40;3.33;;;3.00;;
63217;SDS011;49314;48.278;16.378;2022-07-21T07:00:06;5.73;;;3.60;;
63217;SDS011;49314;48.278;16.378;2022-07-21T07:02:31;4.40;;;3.30;;
63217;SDS011;49314;48.278;16.378;2022-07-21T07:04:57;7.13;;;3.40;;
63217;SDS011;49314;48.278;16.378;2022-07-21T07:07:22;6.80;;;3.53;;
63217;SDS011;49314;48.278;16.378;2022-07-21T07:09:47;3.53;;;2.97;;
63217;SDS011;49314;48.278;16.378;2022-07-21T07:12:13;4.70;;;3.43;;
63217;SDS011;49314;48.278;16.378;2022-07-21T07:14:38;4.97;;;3.03;;
63217;SDS011;49314;48.278;16.378;2022-07-21T07:17:03;7.45;;;3.60;;
63217;SDS011;49314;48.278;16.378;2022-07-21T07:19:29;7.93;;;3.83;;
63217;SDS011;49314;48.278;16.378;2022-07-21T07:21:54;4.90;;;3.60;;
63217;SDS011;49314;48.278;16.378;2022-07-21T07:24:19;5.40;;;3.30;;
63217;SDS011;49314;48.278;16.378;2022-07-21T07:26:45;5.37;;;4.00;;
63217;SDS011;49314;48.278;16.378;2022-07-21T07:29:10;3.97;;;3.57;;
63217;SDS011;49314;48.278;16.378;2022-07-21T07:31:35;4.78;;;3.20;;
63217;SDS011;49314;48.278;16.378;2022-07-21T07:34:01;5.13;;;3.70;;
63217;SDS011;49314;48.278;16.378;2022-07-21T07:36:26;4.10;;;3.10;;
63217;SDS011;49314;48.278;16.378;2022-07-21T07:38:52;4.13;;;3.65;;
63217;SDS011;49314;48.278;16.378;2022-07-21T07:41:18;4.25;;;3.20;;
63217;SDS011;49314;48.278;16.378;2022-07-21T07:43:43;4.15;;;3.28;;
63217;SDS011;49314;48.278;16.378;2022-07-21T07:46:08;4.70;;;3.60;;
63217;SDS011;49314;48.278;16.378;2022-07-21T07:48:36;4.38;;;3.97;;
63217;SDS011;49314;48.278;16.378;2022-07-21T07:51:01;7.50;;;3.60;;
63217;SDS011;49314;48.278;16.378;2022-07-21T07:53:26;4.05;;;3.72;;
63217;SDS011;49314;48.278;16.378;2022-07-21T07:55:52;4.53;;;3.70;;
63217;SDS011;49314;48.278;16.378;2022-07-21T07:58:17;4.37;;;3.97;;
63217;SDS011;49314;48.278;16.378;2022-07-21T08:00:42;4.40;;;3.40;;
63217;SDS011;49314;48.278;16.378;2022-07-21T08:03:07;4.20;;;3.87;;
63217;SDS011;49314;48.278;16.378;2022-07-21T08:05:33;4.40;;;4.00;;
63217;SDS011;49314;48.278;16.378;2022-07-21T08:07:58;4.15;;;3.75;;
63217;SDS011;49314;48.278;16.378;2022-07-21T08:10:23;4.23;;;3.83;;
63217;SDS011;49314;48.278;16.378;2022-07-21T08:12:49;4.82;;;4.38;;
63217;SDS011;49314;48.278;16.378;2022-07-21T08:15:14;4.23;;;3.70;;
63217;SDS011;49314;48.278;16.378;2022-07-21T08:17:40;3.85;;;3.55;;
63217;SDS011;49314;48.278;16.378;2022-07-21T08:20:06;3.87;;;3.57;;
63217;SDS011;49314;48.278;16.378;2022-07-21T08:22:31;4.00;;;3.47;;
63217;SDS011;49314;48.278;16.378;2022-07-21T08:24:56;4.13;;;3.70;;
63217;SDS011;49314;48.278;16.378;2022-07-21T08:27:21;5.17;;;4.03;;
63217;SDS011;49314;48.278;16.378;2022-07-21T08:29:47;5.57;;;4.03;;
63217;SDS011;49314;48.278;16.378;2022-07-21T08:32:12;4.43;;;4.03;;
63217;SDS011;49314;48.278;16.378;2022-07-21T08:34:37;4.80;;;3.92;;
63217;SDS011;49314;48.278;16.378;2022-07-21T08:37:02;4.27;;;3.87;;
63217;SDS011;49314;48.278;16.378;2022-07-21T08:39:28;4.25;;;3.90;;
63217;SDS011;49314;48.278;16.378;2022-07-21T08:41:53;4.43;;;4.03;;
63217;SDS011;49314;48.278;16.378;2022-07-21T08:44:21;4.35;;;3.95;;
63217;SDS011;49314;48.278;16.378;2022-07-21T08:46:48;4.20;;;3.90;;
63217;SDS011;49314;48.278;16.378;2022-07-21T08:49:14;4.32;;;4.00;;
63217;SDS011;49314;48.278;16.378;2022-07-21T08:51:39;6.07;;;4.07;;
63217;SDS011;49314;48.278;16.378;2022-07-21T08:54:04;4.10;;;3.70;;
63217;SDS011;49314;48.278;16.378;2022-07-21T08:56:30;4.60;;;4.20;;
63217;SDS011;49314;48.278;16.378;2022-07-21T08:58:55;5.23;;;4.07;;
63217;SDS011;49314;48.278;16.378;2022-07-21T09:01:20;3.75;;;3.47;;
63217;SDS011;49314;48.278;16.378;2022-07-21T09:03:49;4.13;;;3.80;;
63217;SDS011;49314;48.278;16.378;2022-07-21T09:06:14;4.68;;;4.13;;
63217;SDS011;49314;48.278;16.378;2022-07-21T09:08:45;4.45;;;3.72;;
63217;SDS011;49314;48.278;16.378;2022-07-21T09:11:11;5.15;;;4.65;;
63217;SDS011;49314;48.278;16.378;2022-07-21T09:13:37;4.07;;;3.67;;
63217;SDS011;49314;48.278;16.378;2022-07-21T09:16:03;3.92;;;3.40;;
63217;SDS011;49314;48.278;16.378;2022-07-21T09:18:28;3.53;;;3.30;;
63217;SDS011;49314;48.278;16.378;2022-07-21T09:20:54;4.10;;;3.70;;
63217;SDS011;49314;48.278;16.378;2022-07-21T09:23:21;4.20;;;3.87;;
63217;SDS011;49314;48.278;16.378;2022-07-21T09:25:48;4.05;;;3.63;;
63217;SDS011;49314;48.278;16.378;2022-07-21T09:28:21;3.88;;;3.55;;
63217;SDS011;49314;48.278;16.378;2022-07-21T09:30:57;4.88;;;4.15;;
63217;SDS011;49314;48.278;16.378;2022-07-21T09:34:04;4.28;;;3.88;;
63217;SDS011;49314;48.278;16.378;2022-07-21T09:36:14;3.72;;;3.42;;
63217;SDS011;49314;48.278;16.378;2022-07-21T09:38:51;3.45;;;3.15;;
63217;SDS011;49314;48.278;16.378;2022-07-21T09:41:18;3.70;;;3.40;;
63217;SDS011;49314;48.278;16.378;2022-07-21T09:46:10;4.07;;;3.77;;
63217;SDS011;49314;48.278;16.378;2022-07-21T09:48:36;4.13;;;3.38;;
63217;SDS011;49314;48.278;16.378;2022-07-21T09:56:17;3.80;;;3.50;;
63217;SDS011;49314;48.278;16.378;2022-07-21T09:58:43;4.53;;;4.13;;
63217;SDS011;49314;48.278;16.378;2022-07-21T10:01:09;3.90;;;3.60;;
63217;SDS011;49314;48.278;16.378;2022-07-21T10:03:35;4.27;;;3.90;;
63217;SDS011;49314;48.278;16.378;2022-07-21T10:06:00;4.55;;;4.18;;
63217;SDS011;49314;48.278;16.378;2022-07-21T10:08:25;4.18;;;3.85;;
63217;SDS011;49314;48.278;16.378;2022-07-21T10:10:51;4.43;;;4.03;;
63217;SDS011;49314;48.278;16.378;2022-07-21T10:13:16;4.77;;;4.37;;
63217;SDS011;49314;48.278;16.378;2022-07-21T10:15:41;5.50;;;4.38;;
63217;SDS011;49314;48.278;16.378;2022-07-21T10:18:07;5.47;;;4.33;;
63217;SDS011;49314;48.278;16.378;2022-07-21T10:20:36;4.55;;;4.05;;
63217;SDS011;49314;48.278;16.378;2022-07-21T10:23:16;4.57;;;4.18;;
63217;SDS011;49314;48.278;16.378;2022-07-21T10:25:43;4.90;;;4.38;;
63217;SDS011;49314;48.278;16.378;2022-07-21T10:28:16;5.03;;;4.63;;
63217;SDS011;49314;48.278;16.378;2022-07-21T10:31:00;5.82;;;5.03;;
63217;SDS011;49314;48.278;16.378;2022-07-21T10:39:12;5.72;;;5.22;;
63217;SDS011;49314;48.278;16.378;2022-07-21T10:41:43;6.30;;;5.70;;
63217;SDS011;49314;48.278;16.378;2022-07-21T10:47:02;5.75;;;5.25;;
63217;SDS011;49314;48.278;16.378;2022-07-21T10:58:15;6.13;;;5.32;;
63217;SDS011;49314;48.278;16.378;2022-07-21T11:00:51;6.95;;;5.75;;
63217;SDS011;49314;48.278;16.378;2022-07-21T11:03:18;7.40;;;6.75;;
63217;SDS011;49314;48.278;16.378;2022-07-21T11:08:30;8.13;;;7.40;;
63217;SDS011;49314;48.278;16.378;2022-07-21T11:10:58;8.30;;;7.50;;
63217;SDS011;49314;48.278;16.378;2022-07-21T11:13:31;8.98;;;8.18;;
63217;SDS011;49314;48.278;16.378;2022-07-21T11:16:16;7.68;;;6.90;;
63217;SDS011;49314;48.278;16.378;2022-07-21T11:18:41;9.00;;;8.13;;
63217;SDS011;49314;48.278;16.378;2022-07-21T11:21:11;8.68;;;7.97;;
63217;SDS011;49314;48.278;16.378;2022-07-21T11:23:44;10.10;;;8.75;;
63217;SDS011;49314;48.278;16.378;2022-07-21T11:26:11;9.00;;;8.10;;
63217;SDS011;49314;48.278;16.378;2022-07-21T11:28:36;9.07;;;7.93;;
63217;SDS011;49314;48.278;16.378;2022-07-21T11:31:06;8.02;;;5.88;;
63217;SDS011;49314;48.278;16.378;2022-07-21T11:33:31;13.77;;;12.45;;
63217;SDS011;49314;48.278;16.378;2022-07-21T11:35:57;20.17;;;14.52;;
63217;SDS011;49314;48.278;16.378;2022-07-21T11:38:23;15.38;;;13.40;;
63217;SDS011;49314;48.278;16.378;2022-07-21T11:40:48;14.77;;;12.97;;
63217;SDS011;49314;48.278;16.378;2022-07-21T11:43:14;14.93;;;13.43;;
63217;SDS011;49314;48.278;16.378;2022-07-21T11:45:39;14.43;;;13.13;;
63217;SDS011;49314;48.278;16.378;2022-07-21T11:48:15;23.65;;;12.75;;
63217;SDS011;49314;48.278;16.378;2022-07-21T11:51:01;12.63;;;11.48;;
63217;SDS011;49314;48.278;16.378;2022-07-21T11:53:26;14.60;;;13.20;;
63217;SDS011;49314;48.278;16.378;2022-07-21T11:55:52;15.43;;;13.83;;
63217;SDS011;49314;48.278;16.378;2022-07-21T11:58:18;16.55;;;14.95;;
63217;SDS011;49314;48.278;16.378;2022-07-21T12:00:44;16.77;;;15.18;;
63217;SDS011;49314;48.278;16.378;2022-07-21T12:03:11;21.00;;;17.25;;
63217;SDS011;49314;48.278;16.378;2022-07-21T12:05:38;17.58;;;15.25;;
63217;SDS011;49314;48.278;16.378;2022-07-21T12:08:04;14.98;;;13.57;;
63217;SDS011;49314;48.278;16.378;2022-07-21T12:10:29;13.88;;;12.48;;
63217;SDS011;49314;48.278;16.378;2022-07-21T12:15:46;20.80;;;16.52;;
63217;SDS011;49314;48.278;16.378;2022-07-21T12:18:18;16.30;;;13.95;;
63217;SDS011;49314;48.278;16.378;2022-07-21T12:20:44;15.55;;;13.88;;
63217;SDS011;49314;48.278;16.378;2022-07-21T12:23:28;14.20;;;12.95;;
63217;SDS011;49314;48.278;16.378;2022-07-21T12:25:55;19.80;;;14.98;;
63217;SDS011;49314;48.278;16.378;2022-07-21T12:28:40;15.85;;;14.35;;
63217;SDS011;49314;48.278;16.378;2022-07-21T12:31:09;17.60;;;15.20;;
63217;SDS011;49314;48.278;16.378;2022-07-21T12:33:35;18.67;;;14.68;;
63217;SDS011;49314;48.278;16.378;2022-07-21T12:36:01;18.07;;;14.10;;
63217;SDS011;49314;48.278;16.378;2022-07-21T12:41:05;15.43;;;13.77;;
63217;SDS011;49314;48.278;16.378;2022-07-21T12:43:31;19.98;;;17.35;;
63217;SDS011;49314;48.278;16.378;2022-07-21T12:51:54;17.50;;;15.67;;
63217;SDS011;49314;48.278;16.378;2022-07-21T12:53:46;17.67;;;15.02;;
63217;SDS011;49314;48.278;16.378;2022-07-21T12:56:13;22.13;;;17.27;;
63217;SDS011;49314;48.278;16.378;2022-07-21T12:58:38;20.27;;;16.70;;
63217;SDS011;49314;48.278;16.378;2022-07-21T13:01:04;22.45;;;16.98;;
63217;SDS011;49314;48.278;16.378;2022-07-21T13:03:31;18.58;;;15.93;;
63217;SDS011;49314;48.278;16.378;2022-07-21T13:05:56;22.02;;;17.35;;
63217;SDS011;49314;48.278;16.378;2022-07-21T13:08:21;21.40;;;18.10;;
63217;SDS011;49314;48.278;16.378;2022-07-21T13:10:47;20.37;;;18.03;;
63217;SDS011;49314;48.278;16.378;2022-07-21T13:13:12;20.40;;;18.33;;
63217;SDS011;49314;48.278;16.378;2022-07-21T13:15:37;26.07;;;20.03;;
63217;SDS011;49314;48.278;16.378;2022-07-21T13:18:03;21.20;;;17.50;;
63217;SDS011;49314;48.278;16.378;2022-07-21T13:20:28;21.88;;;18.30;;
63217;SDS011;49314;48.278;16.378;2022-07-21T13:22:53;20.42;;;17.42;;
63217;SDS011;49314;48.278;16.378;2022-07-21T13:25:18;19.40;;;17.50;;
63217;SDS011;49314;48.278;16.378;2022-07-21T13:27:44;21.00;;;18.80;;
63217;SDS011;49314;48.278;16.378;2022-07-21T13:30:09;20.23;;;18.00;;
63217;SDS011;49314;48.278;16.378;2022-07-21T13:32:35;20.80;;;18.25;;
63217;SDS011;49314;48.278;16.378;2022-07-21T13:35:00;24.25;;;18.85;;
63217;SDS011;49314;48.278;16.378;2022-07-21T13:37:26;21.63;;;17.33;;
63217;SDS011;49314;48.278;16.378;2022-07-21T13:39:51;18.77;;;16.70;;
63217;SDS011;49314;48.278;16.378;2022-07-21T13:42:16;19.00;;;16.97;;
63217;SDS011;49314;48.278;16.378;2022-07-21T13:44:41;18.97;;;17.13;;
63217;SDS011;49314;48.278;16.378;2022-07-21T13:47:07;20.07;;;18.07;;
63217;SDS011;49314;48.278;16.378;2022-07-21T13:49:32;19.75;;;17.70;;
63217;SDS011;49314;48.278;16.378;2022-07-21T13:51:57;20.23;;;17.33;;
63217;SDS011;49314;48.278;16.378;2022-07-21T13:54:22;19.20;;;17.10;;
63217;SDS011;49314;48.278;16.378;2022-07-21T13:56:47;19.83;;;17.90;;
63217;SDS011;49314;48.278;16.378;2022-07-21T13:59:13;18.83;;;16.77;;
63217;SDS011;49314;48.278;16.378;2022-07-21T14:01:38;19.93;;;17.93;;
63217;SDS011;49314;48.278;16.378;2022-07-21T14:04:03;19.97;;;17.87;;
63217;SDS011;49314;48.278;16.378;2022-07-21T14:06:28;19.40;;;17.40;;
63217;SDS011;49314;48.278;16.378;2022-07-21T14:08:54;18.30;;;16.38;;
63217;SDS011;49314;48.278;16.378;2022-07-21T14:11:19;18.25;;;16.45;;
63217;SDS011;49314;48.278;16.378;2022-07-21T14:13:47;19.33;;;17.33;;
63217;SDS011;49314;48.278;16.378;2022-07-21T14:16:13;18.85;;;16.73;;
63217;SDS011;49314;48.278;16.378;2022-07-21T14:18:38;18.75;;;16.75;;
63217;SDS011;49314;48.278;16.378;2022-07-21T14:21:03;19.03;;;17.20;;
63217;SDS011;49314;48.278;16.378;2022-07-21T14:23:29;19.10;;;17.17;;
63217;SDS011;49314;48.278;16.378;2022-07-21T14:25:54;19.03;;;17.00;;
63217;SDS011;49314;48.278;16.378;2022-07-21T14:28:19;28.33;;;19.03;;
63217;SDS011;49314;48.278;16.378;2022-07-21T14:30:45;18.98;;;17.00;;
63217;SDS011;49314;48.278;16.378;2022-07-21T14:33:10;19.60;;;17.67;;
63217;SDS011;49314;48.278;16.378;2022-07-21T14:35:36;20.25;;;17.90;;
63217;SDS011;49314;48.278;16.378;2022-07-21T14:38:01;19.63;;;17.42;;
63217;SDS011;49314;48.278;16.378;2022-07-21T14:40:26;22.35;;;18.00;;
63217;SDS011;49314;48.278;16.378;2022-07-21T14:42:52;20.02;;;17.63;;
63217;SDS011;49314;48.278;16.378;2022-07-21T14:45:18;21.63;;;18.45;;
63217;SDS011;49314;48.278;16.378;2022-07-21T14:47:44;18.95;;;16.95;;
63217;SDS011;49314;48.278;16.378;2022-07-21T14:50:11;20.48;;;18.15;;
63217;SDS011;49314;48.278;16.378;2022-07-21T14:52:36;18.20;;;16.33;;
63217;SDS011;49314;48.278;16.378;2022-07-21T14:55:01;18.73;;;16.73;;
63217;SDS011;49314;48.278;16.378;2022-07-21T14:57:27;18.73;;;16.92;;
63217;SDS011;49314;48.278;16.378;2022-07-21T14:59:52;23.50;;;21.08;;
63217;SDS011;49314;48.278;16.378;2022-07-21T15:02:18;26.20;;;23.40;;